sensor_id;sensor_type;location;lat;lon;timestamp;pressure;altitude;pressure_sealevel;temperature;humidity
40315;BME280;26021;45.640;11.302;2023-03-16T00:15:32;98948.03;;;4.66;59.74
40315;BME280;26021;45.640;11.302;2023-03-16T00:17:57;98958.75;;;4.64;60.64
40315;BME280;26021;45.640;11.302;2023-03-16T00:20:23;98932.13;;;4.56;62.39
40315;BME280;26021;45.640;11.302;2023-03-16T00:22:48;98955.16;;;4.65;61.07
40315;BME280;26021;45.640;11.302;2023-03-16T00:25:15;98960.47;;;4.75;58.91
40315;BME280;26021;45.640;11.302;2023-03-16T00:27:41;98960.75;;;4.91;58.53
40315;BME280;26021;45.640;11.302;2023-03-16T00:30:07;98940.94;;;4.76;57.89
40315;BME280;26021;45.640;11.302;2023-03-16T00:32:34;98960.59;;;4.73;57.12
40315;BME280;26021;45.640;11.302;2023-03-16T00:35:01;98947.34;;;4.64;56.75
40315;BME280;26021;45.640;11.302;2023-03-16T00:37:27;98952.91;;;4.70;56.34
40315;BME280;26021;45.640;11.302;2023-03-16T00:39:53;98961.16;;;4.67;58.41
40315;BME280;26021;45.640;11.302;2023-03-16T00:42:24;98970.75;;;4.68;58.54
40315;BME280;26021;45.640;11.302;2023-03-16T00:44:55;98910.56;;;4.21;58.59
40315;BME280;26021;45.640;11.302;2023-03-16T00:47:22;98904.97;;;4.14;60.15
40315;BME280;26021;45.640;11.302;2023-03-16T00:49:48;98724.59;;;3.09;60.96
40315;BME280;26021;45.640;11.302;2023-03-16T00:52:13;98971.44;;;4.51;59.25
40315;BME280;26021;45.640;11.302;2023-03-16T00:54:43;98971.59;;;4.59;59.46
40315;BME280;26021;45.640;11.302;2023-03-16T00:57:12;98974.81;;;4.72;59.10
40315;BME280;26021;45.640;11.302;2023-03-16T00:59:38;98978.44;;;4.71;58.05
40315;BME280;26021;45.640;11.302;2023-03-16T01:02:05;98978.66;;;4.49;58.19
40315;BME280;26021;45.640;11.302;2023-03-16T01:04:31;98891.22;;;3.90;59.03
40315;BME280;26021;45.640;11.302;2023-03-16T01:06:58;98969.78;;;4.60;60.56
40315;BME280;26021;45.640;11.302;2023-03-16T01:09:24;98969.28;;;4.45;61.22
40315;BME280;26021;45.640;11.302;2023-03-16T01:11:49;98963.63;;;4.50;59.64
40315;BME280;26021;45.640;11.302;2023-03-16T01:14:19;98960.84;;;4.51;58.92
40315;BME280;26021;45.640;11.302;2023-03-16T01:16:44;98967.41;;;4.57;57.65
40315;BME280;26021;45.640;11.302;2023-03-16T01:19:10;98953.91;;;4.29;56.51
40315;BME280;26021;45.640;11.302;2023-03-16T01:21:37;98970.19;;;4.25;58.67
40315;BME280;26021;45.640;11.302;2023-03-16T01:24:03;98967.72;;;4.33;58.90
40315;BME280;26021;45.640;11.302;2023-03-16T01:26:29;98970.41;;;4.42;59.31
40315;BME280;26021;45.640;11.302;2023-03-16T01:28:54;98970.63;;;4.30;61.88
40315;BME280;26021;45.640;11.302;2023-03-16T01:31:20;98751.28;;;3.06;62.41
40315;BME280;26021;45.640;11.302;2023-03-16T01:33:45;98972.88;;;4.34;66.73
40315;BME280;26021;45.640;11.302;2023-03-16T01:36:14;98974.13;;;4.30;64.17
40315;BME280;26021;45.640;11.302;2023-03-16T01:38:40;98941.72;;;4.07;63.75
40315;BME280;26021;45.640;11.302;2023-03-16T01:41:06;98955.56;;;4.21;64.20
40315;BME280;26021;45.640;11.302;2023-03-16T01:43:33;98968.44;;;4.35;64.88
40315;BME280;26021;45.640;11.302;2023-03-16T01:48:36;98968.13;;;4.28;63.53
40315;BME280;26021;45.640;11.302;2023-03-16T01:51:06;98891.09;;;3.91;62.02
40315;BME280;26021;45.640;11.302;2023-03-16T01:53:33;98952.53;;;4.35;63.12
40315;BME280;26021;45.640;11.302;2023-03-16T01:56:02;98960.16;;;4.19;64.95
40315;BME280;26021;45.640;11.302;2023-03-16T01:58:29;98939.00;;;4.28;65.40
40315;BME280;26021;45.640;11.302;2023-03-16T02:00:55;98947.34;;;4.24;65.84
40315;BME280;26021;45.640;11.302;2023-03-16T02:03:23;98948.03;;;4.16;65.64
40315;BME280;26021;45.640;11.302;2023-03-16T02:05:58;98944.25;;;4.19;65.94
40315;BME280;26021;45.640;11.302;2023-03-16T02:08:26;98885.16;;;3.47;70.35
40315;BME280;26021;45.640;11.302;2023-03-16T02:10:52;98951.38;;;3.88;69.43
40315;BME280;26021;45.640;11.302;2023-03-16T02:13:23;98953.06;;;3.89;69.70
40315;BME280;26021;45.640;11.302;2023-03-16T02:15:51;98903.34;;;3.62;69.74
40315;BME280;26021;45.640;11.302;2023-03-16T02:18:18;98956.19;;;4.03;70.29
40315;BME280;26021;45.640;11.302;2023-03-16T02:23:15;98951.56;;;3.96;71.03
40315;BME280;26021;45.640;11.302;2023-03-16T02:26:02;98949.13;;;3.83;71.75
40315;BME280;26021;45.640;11.302;2023-03-16T02:31:09;98900.50;;;3.54;68.81
40315;BME280;26021;45.640;11.302;2023-03-16T02:33:37;98957.22;;;3.81;71.69
40315;BME280;26021;45.640;11.302;2023-03-16T02:36:03;98947.72;;;3.79;73.43
40315;BME280;26021;45.640;11.302;2023-03-16T02:38:29;98965.41;;;3.78;72.96
40315;BME280;26021;45.640;11.302;2023-03-16T02:41:08;98967.00;;;3.91;72.48
40315;BME280;26021;45.640;11.302;2023-03-16T02:43:37;98915.94;;;3.28;73.79
40315;BME280;26021;45.640;11.302;2023-03-16T02:46:04;98965.13;;;3.61;74.92
40315;BME280;26021;45.640;11.302;2023-03-16T02:51:01;98964.88;;;3.85;73.35
40315;BME280;26021;45.640;11.302;2023-03-16T02:53:27;98971.13;;;3.83;73.24
40315;BME280;26021;45.640;11.302;2023-03-16T02:55:52;98963.91;;;3.65;73.31
40315;BME280;26021;45.640;11.302;2023-03-16T02:58:18;98960.56;;;3.42;77.25
40315;BME280;26021;45.640;11.302;2023-03-16T03:00:43;98966.50;;;3.34;79.47
40315;BME280;26021;45.640;11.302;2023-03-16T03:03:12;98942.44;;;3.16;78.79
40315;BME280;26021;45.640;11.302;2023-03-16T03:05:38;98961.53;;;3.62;77.30
40315;BME280;26021;45.640;11.302;2023-03-16T03:08:04;98967.78;;;3.40;78.48
40315;BME280;26021;45.640;11.302;2023-03-16T03:10:30;98972.22;;;3.60;76.14
40315;BME280;26021;45.640;11.302;2023-03-16T03:12:56;98861.19;;;2.77;76.34
40315;BME280;26021;45.640;11.302;2023-03-16T03:15:22;98978.03;;;3.54;76.71
40315;BME280;26021;45.640;11.302;2023-03-16T03:17:48;98910.84;;;3.15;79.16
40315;BME280;26021;45.640;11.302;2023-03-16T03:20:14;98962.56;;;3.29;79.85
40315;BME280;26021;45.640;11.302;2023-03-16T03:22:46;98892.38;;;2.83;81.42
40315;BME280;26021;45.640;11.302;2023-03-16T03:25:14;98927.59;;;3.04;80.60
40315;BME280;26021;45.640;11.302;2023-03-16T03:27:41;98985.47;;;3.60;78.88
40315;BME280;26021;45.640;11.302;2023-03-16T03:30:08;98985.00;;;3.55;79.85
40315;BME280;26021;45.640;11.302;2023-03-16T03:32:34;98995.13;;;3.71;78.45
40315;BME280;26021;45.640;11.302;2023-03-16T03:34:59;98994.22;;;3.61;81.34
40315;BME280;26021;45.640;11.302;2023-03-16T03:37:25;98981.59;;;3.64;81.47
40315;BME280;26021;45.640;11.302;2023-03-16T03:39:50;98992.81;;;3.77;78.05
40315;BME280;26021;45.640;11.302;2023-03-16T03:42:17;98997.66;;;3.51;79.26
40315;BME280;26021;45.640;11.302;2023-03-16T03:44:43;98997.00;;;3.38;82.06
40315;BME280;26021;45.640;11.302;2023-03-16T03:47:08;99006.28;;;3.54;79.82
40315;BME280;26021;45.640;11.302;2023-03-16T03:49:34;99003.97;;;3.39;82.95
40315;BME280;26021;45.640;11.302;2023-03-16T03:51:59;99003.38;;;3.36;84.84
40315;BME280;26021;45.640;11.302;2023-03-16T03:54:26;98974.94;;;2.96;86.51
40315;BME280;26021;45.640;11.302;2023-03-16T03:56:52;99003.38;;;3.36;82.58
40315;BME280;26021;45.640;11.302;2023-03-16T03:59:17;99010.59;;;3.34;83.01
40315;BME280;26021;45.640;11.302;2023-03-16T04:01:43;99018.91;;;3.29;84.54
40315;BME280;26021;45.640;11.302;2023-03-16T04:04:08;99005.69;;;3.29;84.02
40315;BME280;26021;45.640;11.302;2023-03-16T04:06:33;99025.53;;;3.24;85.00
40315;BME280;26021;45.640;11.302;2023-03-16T04:08:59;99034.00;;;3.38;83.96
40315;BME280;26021;45.640;11.302;2023-03-16T04:11:25;99032.75;;;3.22;84.14
40315;BME280;26021;45.640;11.302;2023-03-16T04:13:50;99043.72;;;3.17;83.60
40315;BME280;26021;45.640;11.302;2023-03-16T04:16:18;99038.47;;;2.95;86.68
40315;BME280;26021;45.640;11.302;2023-03-16T04:18:43;98958.59;;;2.59;86.10
40315;BME280;26021;45.640;11.302;2023-03-16T04:21:15;98988.72;;;2.68;87.88
40315;BME280;26021;45.640;11.302;2023-03-16T04:23:41;99016.31;;;3.18;85.76
40315;BME280;26021;45.640;11.302;2023-03-16T04:26:07;99037.81;;;3.45;84.44
40315;BME280;26021;45.640;11.302;2023-03-16T04:28:33;99036.28;;;3.43;84.01
40315;BME280;26021;45.640;11.302;2023-03-16T04:31:03;99033.31;;;3.36;85.09
40315;BME280;26021;45.640;11.302;2023-03-16T04:33:29;98958.13;;;2.54;88.05
40315;BME280;26021;45.640;11.302;2023-03-16T04:35:56;99034.03;;;2.95;90.94
40315;BME280;26021;45.640;11.302;2023-03-16T04:38:22;99038.75;;;2.80;89.97
40315;BME280;26021;45.640;11.302;2023-03-16T04:40:47;99005.03;;;2.62;89.83
40315;BME280;26021;45.640;11.302;2023-03-16T04:43:13;99041.09;;;2.95;88.43
40315;BME280;26021;45.640;11.302;2023-03-16T04:45:38;99039.69;;;3.02;87.94
40315;BME280;26021;45.640;11.302;2023-03-16T04:48:04;99042.19;;;3.03;87.93
40315;BME280;26021;45.640;11.302;2023-03-16T04:50:30;98994.34;;;2.63;88.46
40315;BME280;26021;45.640;11.302;2023-03-16T04:52:55;99037.06;;;2.79;90.06
40315;BME280;26021;45.640;11.302;2023-03-16T04:55:20;99044.84;;;2.92;91.88
40315;BME280;26021;45.640;11.302;2023-03-16T04:57:47;99048.56;;;2.90;90.51
40315;BME280;26021;45.640;11.302;2023-03-16T05:00:13;99012.50;;;2.57;92.62
40315;BME280;26021;45.640;11.302;2023-03-16T05:02:48;99027.44;;;2.90;91.74
40315;BME280;26021;45.640;11.302;2023-03-16T05:05:14;99026.97;;;2.84;89.74
40315;BME280;26021;45.640;11.302;2023-03-16T05:07:41;99051.81;;;3.04;89.83
40315;BME280;26021;45.640;11.302;2023-03-16T05:10:08;99043.63;;;2.96;91.28
40315;BME280;26021;45.640;11.302;2023-03-16T05:12:34;99052.28;;;2.98;90.12
40315;BME280;26021;45.640;11.302;2023-03-16T05:15:00;99063.81;;;2.86;93.38
40315;BME280;26021;45.640;11.302;2023-03-16T05:17:26;99064.56;;;2.77;94.30
40315;BME280;26021;45.640;11.302;2023-03-16T05:19:52;99072.84;;;2.72;93.30
40315;BME280;26021;45.640;11.302;2023-03-16T05:22:17;98975.34;;;2.26;92.05
40315;BME280;26021;45.640;11.302;2023-03-16T05:24:43;99077.88;;;2.98;90.23
40315;BME280;26021;45.640;11.302;2023-03-16T05:27:08;99039.75;;;2.57;89.53
40315;BME280;26021;45.640;11.302;2023-03-16T05:29:33;99086.16;;;2.82;90.68
40315;BME280;26021;45.640;11.302;2023-03-16T05:31:59;99083.16;;;2.75;90.85
40315;BME280;26021;45.640;11.302;2023-03-16T05:34:25;99071.63;;;2.87;89.13
40315;BME280;26021;45.640;11.302;2023-03-16T05:36:51;99085.56;;;3.01;86.17
40315;BME280;26021;45.640;11.302;2023-03-16T05:39:16;99076.16;;;3.08;86.33
40315;BME280;26021;45.640;11.302;2023-03-16T05:41:42;99092.75;;;3.10;86.23
40315;BME280;26021;45.640;11.302;2023-03-16T05:44:08;99093.84;;;2.85;91.90
40315;BME280;26021;45.640;11.302;2023-03-16T05:46:34;99093.25;;;2.81;92.35
40315;BME280;26021;45.640;11.302;2023-03-16T05:49:00;99102.72;;;3.06;90.18
40315;BME280;26021;45.640;11.302;2023-03-16T05:51:26;99042.72;;;2.75;88.73
40315;BME280;26021;45.640;11.302;2023-03-16T05:53:52;99029.50;;;2.75;86.95
40315;BME280;26021;45.640;11.302;2023-03-16T05:56:24;99088.31;;;3.10;87.14
40315;BME280;26021;45.640;11.302;2023-03-16T05:58:51;99088.19;;;2.90;89.11
40315;BME280;26021;45.640;11.302;2023-03-16T06:01:18;99103.56;;;2.84;89.62
40315;BME280;26021;45.640;11.302;2023-03-16T06:03:45;99102.72;;;3.06;89.29
40315;BME280;26021;45.640;11.302;2023-03-16T06:06:10;99102.69;;;3.17;88.49
40315;BME280;26021;45.640;11.302;2023-03-16T06:08:36;99107.13;;;3.28;87.44
40315;BME280;26021;45.640;11.302;2023-03-16T06:11:02;99087.19;;;3.24;86.50
40315;BME280;26021;45.640;11.302;2023-03-16T06:13:28;99106.19;;;3.18;88.15
40315;BME280;26021;45.640;11.302;2023-03-16T06:15:54;99109.75;;;3.28;87.42
40315;BME280;26021;45.640;11.302;2023-03-16T06:18:19;99116.72;;;3.29;88.39
40315;BME280;26021;45.640;11.302;2023-03-16T06:20:45;99102.28;;;3.33;90.93
40315;BME280;26021;45.640;11.302;2023-03-16T06:23:11;99130.28;;;3.36;91.38
40315;BME280;26021;45.640;11.302;2023-03-16T06:25:38;99099.84;;;3.41;91.68
40315;BME280;26021;45.640;11.302;2023-03-16T06:28:03;99132.84;;;3.58;91.72
40315;BME280;26021;45.640;11.302;2023-03-16T06:30:29;99141.00;;;3.98;89.51
40315;BME280;26021;45.640;11.302;2023-03-16T06:32:55;99142.56;;;4.22;85.51
40315;BME280;26021;45.640;11.302;2023-03-16T06:35:21;99149.19;;;4.58;75.41
40315;BME280;26021;45.640;11.302;2023-03-16T06:37:46;99150.63;;;4.62;74.76
40315;BME280;26021;45.640;11.302;2023-03-16T06:40:12;99163.69;;;4.84;70.95
40315;BME280;26021;45.640;11.302;2023-03-16T06:42:37;99155.19;;;4.90;71.27
40315;BME280;26021;45.640;11.302;2023-03-16T06:45:03;99120.53;;;4.72;69.04
40315;BME280;26021;45.640;11.302;2023-03-16T06:47:28;99168.06;;;5.35;68.90
40315;BME280;26021;45.640;11.302;2023-03-16T06:49:54;99171.97;;;5.31;68.27
40315;BME280;26021;45.640;11.302;2023-03-16T06:52:20;99172.28;;;5.47;67.43
40315;BME280;26021;45.640;11.302;2023-03-16T06:54:45;99165.75;;;5.70;65.89
40315;BME280;26021;45.640;11.302;2023-03-16T06:57:11;99172.88;;;5.80;65.21
40315;BME280;26021;45.640;11.302;2023-03-16T06:59:36;99141.16;;;5.68;65.70
40315;BME280;26021;45.640;11.302;2023-03-16T07:02:02;99176.25;;;6.40;64.23
40315;BME280;26021;45.640;11.302;2023-03-16T07:04:27;99151.81;;;6.26;60.92
40315;BME280;26021;45.640;11.302;2023-03-16T07:06:53;99176.63;;;6.64;58.28
40315;BME280;26021;45.640;11.302;2023-03-16T07:09:18;99183.41;;;6.39;59.08
40315;BME280;26021;45.640;11.302;2023-03-16T07:11:43;99177.19;;;6.67;58.92
40315;BME280;26021;45.640;11.302;2023-03-16T07:14:09;99180.28;;;6.73;59.30
40315;BME280;26021;45.640;11.302;2023-03-16T07:16:35;99182.03;;;6.91;59.26
40315;BME280;26021;45.640;11.302;2023-03-16T07:19:01;99188.22;;;7.19;58.34
40315;BME280;26021;45.640;11.302;2023-03-16T07:21:26;99182.72;;;6.93;58.26
40315;BME280;26021;45.640;11.302;2023-03-16T07:23:52;99155.94;;;7.05;59.18
40315;BME280;26021;45.640;11.302;2023-03-16T07:26:17;99191.47;;;7.41;56.70
40315;BME280;26021;45.640;11.302;2023-03-16T07:28:43;99070.94;;;7.30;57.39
40315;BME280;26021;45.640;11.302;2023-03-16T07:31:09;99187.22;;;8.28;54.60
40315;BME280;26021;45.640;11.302;2023-03-16T07:33:35;99190.84;;;8.63;53.88
40315;BME280;26021;45.640;11.302;2023-03-16T07:36:00;99181.25;;;8.70;52.12
40315;BME280;26021;45.640;11.302;2023-03-16T07:38:31;99195.50;;;8.61;52.34
40315;BME280;26021;45.640;11.302;2023-03-16T07:40:57;99202.88;;;8.67;52.43
40315;BME280;26021;45.640;11.302;2023-03-16T07:43:23;99172.97;;;8.55;52.02
40315;BME280;26021;45.640;11.302;2023-03-16T07:45:50;99190.03;;;8.88;52.04
40315;BME280;26021;45.640;11.302;2023-03-16T07:48:22;99215.19;;;9.12;53.24
40315;BME280;26021;45.640;11.302;2023-03-16T07:50:48;99142.50;;;9.18;51.98
40315;BME280;26021;45.640;11.302;2023-03-16T07:53:14;99206.44;;;9.70;51.56
40315;BME280;26021;45.640;11.302;2023-03-16T07:55:40;99209.53;;;9.57;50.77
40315;BME280;26021;45.640;11.302;2023-03-16T07:58:07;99210.00;;;9.86;52.07
40315;BME280;26021;45.640;11.302;2023-03-16T08:00:33;99179.22;;;9.24;49.88
40315;BME280;26021;45.640;11.302;2023-03-16T08:02:59;99210.69;;;9.54;50.76
40315;BME280;26021;45.640;11.302;2023-03-16T08:05:25;99194.88;;;9.61;46.50
40315;BME280;26021;45.640;11.302;2023-03-16T08:07:50;99211.19;;;10.08;46.61
40315;BME280;26021;45.640;11.302;2023-03-16T08:10:17;99217.88;;;10.04;45.69
40315;BME280;26021;45.640;11.302;2023-03-16T08:12:42;99220.22;;;9.57;46.11
40315;BME280;26021;45.640;11.302;2023-03-16T08:15:08;99213.16;;;9.40;47.33
40315;BME280;26021;45.640;11.302;2023-03-16T08:17:34;99222.13;;;9.31;47.45
40315;BME280;26021;45.640;11.302;2023-03-16T08:20:02;99137.50;;;9.23;46.21
40315;BME280;26021;45.640;11.302;2023-03-16T08:22:32;99194.63;;;9.88;45.52
40315;BME280;26021;45.640;11.302;2023-03-16T08:24:57;99216.88;;;10.13;45.82
40315;BME280;26021;45.640;11.302;2023-03-16T08:27:23;99211.59;;;10.38;46.76
40315;BME280;26021;45.640;11.302;2023-03-16T08:29:52;99151.59;;;10.24;45.92
40315;BME280;26021;45.640;11.302;2023-03-16T08:32:18;99212.28;;;10.72;47.00
40315;BME280;26021;45.640;11.302;2023-03-16T08:34:43;99215.13;;;10.63;47.05
40315;BME280;26021;45.640;11.302;2023-03-16T08:37:10;99206.25;;;10.78;47.02
40315;BME280;26021;45.640;11.302;2023-03-16T08:39:39;99219.97;;;10.59;46.95
40315;BME280;26021;45.640;11.302;2023-03-16T08:42:04;99217.47;;;10.49;49.36
40315;BME280;26021;45.640;11.302;2023-03-16T08:44:31;99220.13;;;10.66;49.63
40315;BME280;26021;45.640;11.302;2023-03-16T08:46:57;99211.44;;;10.47;49.30
40315;BME280;26021;45.640;11.302;2023-03-16T08:49:24;99206.25;;;10.22;49.84
40315;BME280;26021;45.640;11.302;2023-03-16T08:51:50;99137.53;;;10.14;50.20
40315;BME280;26021;45.640;11.302;2023-03-16T08:54:15;99171.69;;;10.44;48.95
40315;BME280;26021;45.640;11.302;2023-03-16T08:56:41;99141.22;;;10.37;49.36
40315;BME280;26021;45.640;11.302;2023-03-16T08:59:07;99192.00;;;10.86;50.68
40315;BME280;26021;45.640;11.302;2023-03-16T09:01:33;99206.72;;;10.98;49.69
40315;BME280;26021;45.640;11.302;2023-03-16T09:03:59;99217.31;;;10.59;51.01
40315;BME280;26021;45.640;11.302;2023-03-16T09:06:25;99183.34;;;10.27;51.26
40315;BME280;26021;45.640;11.302;2023-03-16T09:08:51;99235.28;;;11.22;52.16
40315;BME280;26021;45.640;11.302;2023-03-16T09:11:18;99230.13;;;11.04;51.65
40315;BME280;26021;45.640;11.302;2023-03-16T09:13:44;99179.00;;;10.34;48.96
40315;BME280;26021;45.640;11.302;2023-03-16T09:16:11;99241.16;;;11.18;49.77
40315;BME280;26021;45.640;11.302;2023-03-16T09:18:37;99248.25;;;11.50;50.31
40315;BME280;26021;45.640;11.302;2023-03-16T09:21:05;99242.75;;;11.43;48.97
40315;BME280;26021;45.640;11.302;2023-03-16T09:23:32;99164.28;;;10.79;48.30
40315;BME280;26021;45.640;11.302;2023-03-16T09:26:02;99192.88;;;10.70;49.92
40315;BME280;26021;45.640;11.302;2023-03-16T09:28:30;99242.66;;;11.04;47.66
40315;BME280;26021;45.640;11.302;2023-03-16T09:30:56;99255.38;;;11.02;47.76
40315;BME280;26021;45.640;11.302;2023-03-16T09:33:23;99253.06;;;10.91;50.53
40315;BME280;26021;45.640;11.302;2023-03-16T09:35:49;99193.88;;;10.69;49.69
40315;BME280;26021;45.640;11.302;2023-03-16T09:38:19;99260.72;;;11.18;48.62
40315;BME280;26021;45.640;11.302;2023-03-16T09:40:47;99265.91;;;11.03;48.37
40315;BME280;26021;45.640;11.302;2023-03-16T09:43:41;99268.09;;;11.00;49.45
40315;BME280;26021;45.640;11.302;2023-03-16T09:48:48;99264.28;;;10.70;50.02
40315;BME280;26021;45.640;11.302;2023-03-16T09:53:54;99263.28;;;10.63;50.74
40315;BME280;26021;45.640;11.302;2023-03-16T09:56:39;99267.44;;;10.73;49.80
40315;BME280;26021;45.640;11.302;2023-03-16T09:59:11;99246.22;;;10.47;50.17
40315;BME280;26021;45.640;11.302;2023-03-16T10:02:14;99265.78;;;10.64;50.76
40315;BME280;26021;45.640;11.302;2023-03-16T10:05:09;99256.09;;;10.63;50.10
40315;BME280;26021;45.640;11.302;2023-03-16T10:08:14;99268.97;;;10.68;50.03
40315;BME280;26021;45.640;11.302;2023-03-16T10:15:49;99276.31;;;10.74;49.55
40315;BME280;26021;45.640;11.302;2023-03-16T10:18:22;99274.97;;;10.86;51.92
40315;BME280;26021;45.640;11.302;2023-03-16T10:20:51;99255.91;;;10.73;49.19
40315;BME280;26021;45.640;11.302;2023-03-16T10:23:23;99272.63;;;10.91;48.98
40315;BME280;26021;45.640;11.302;2023-03-16T10:28:21;99269.59;;;10.94;47.05
40315;BME280;26021;45.640;11.302;2023-03-16T10:30:49;99278.63;;;11.01;48.00
40315;BME280;26021;45.640;11.302;2023-03-16T10:33:33;99195.91;;;10.51;47.40
40315;BME280;26021;45.640;11.302;2023-03-16T10:36:11;99088.09;;;9.77;46.70
40315;BME280;26021;45.640;11.302;2023-03-16T10:38:53;99263.59;;;10.92;47.81
40315;BME280;26021;45.640;11.302;2023-03-16T10:43:58;99279.97;;;11.05;46.88
40315;BME280;26021;45.640;11.302;2023-03-16T10:49:04;99278.25;;;11.37;47.34
40315;BME280;26021;45.640;11.302;2023-03-16T10:51:32;99241.19;;;10.93;48.04
40315;BME280;26021;45.640;11.302;2023-03-16T10:54:23;99282.66;;;11.22;48.22
40315;BME280;26021;45.640;11.302;2023-03-16T10:56:52;99280.13;;;11.20;49.05
40315;BME280;26021;45.640;11.302;2023-03-16T10:59:33;99285.47;;;11.12;49.79
40315;BME280;26021;45.640;11.302;2023-03-16T11:02:07;99279.94;;;11.38;48.20
40315;BME280;26021;45.640;11.302;2023-03-16T11:04:38;99222.13;;;10.80;48.71
40315;BME280;26021;45.640;11.302;2023-03-16T11:07:06;99276.97;;;10.84;48.09
40315;BME280;26021;45.640;11.302;2023-03-16T11:09:39;99274.97;;;10.94;49.00
40315;BME280;26021;45.640;11.302;2023-03-16T11:12:26;99279.13;;;11.21;50.88
40315;BME280;26021;45.640;11.302;2023-03-16T11:15:00;99273.78;;;10.89;48.17
40315;BME280;26021;45.640;11.302;2023-03-16T11:17:40;99253.41;;;10.71;49.48
40315;BME280;26021;45.640;11.302;2023-03-16T11:20:29;99270.44;;;10.87;49.36
40315;BME280;26021;45.640;11.302;2023-03-16T11:22:58;99276.78;;;11.02;50.37
40315;BME280;26021;45.640;11.302;2023-03-16T11:25:41;99265.56;;;11.23;48.91
40315;BME280;26021;45.640;11.302;2023-03-16T11:33:30;99264.09;;;10.96;47.45
40315;BME280;26021;45.640;11.302;2023-03-16T11:38:51;99251.66;;;11.27;47.55
40315;BME280;26021;45.640;11.302;2023-03-16T11:41:27;99251.09;;;11.48;45.65
40315;BME280;26021;45.640;11.302;2023-03-16T11:44:35;99252.16;;;11.31;44.73
40315;BME280;26021;45.640;11.302;2023-03-16T12:00:52;99204.06;;;11.45;43.54
40315;BME280;26021;45.640;11.302;2023-03-16T12:06:56;99227.78;;;12.04;43.26
40315;BME280;26021;45.640;11.302;2023-03-16T12:09:49;99230.06;;;12.15;43.18
40315;BME280;26021;45.640;11.302;2023-03-16T12:17:33;99175.28;;;11.48;45.12
40315;BME280;26021;45.640;11.302;2023-03-16T12:20:05;99220.00;;;11.39;44.95
40315;BME280;26021;45.640;11.302;2023-03-16T12:22:38;99213.69;;;11.63;45.06
40315;BME280;26021;45.640;11.302;2023-03-16T12:25:24;99215.63;;;11.85;43.93
40315;BME280;26021;45.640;11.302;2023-03-16T12:27:53;99168.09;;;11.79;44.16
40315;BME280;26021;45.640;11.302;2023-03-16T12:36:37;99196.66;;;11.95;44.56
40315;BME280;26021;45.640;11.302;2023-03-16T12:44:08;99190.59;;;12.24;44.12
40315;BME280;26021;45.640;11.302;2023-03-16T12:49:04;99181.38;;;12.03;45.05
40315;BME280;26021;45.640;11.302;2023-03-16T12:53:58;99179.03;;;12.23;44.06
40315;BME280;26021;45.640;11.302;2023-03-16T12:56:29;99176.50;;;12.67;44.21
40315;BME280;26021;45.640;11.302;2023-03-16T12:58:57;99178.16;;;12.31;44.85
40315;BME280;26021;45.640;11.302;2023-03-16T13:01:29;99117.22;;;12.02;43.94
40315;BME280;26021;45.640;11.302;2023-03-16T13:04:07;99107.28;;;12.25;42.69
40315;BME280;26021;45.640;11.302;2023-03-16T13:06:34;99174.13;;;12.50;43.92
40315;BME280;26021;45.640;11.302;2023-03-16T13:09:02;99164.97;;;12.82;44.06
40315;BME280;26021;45.640;11.302;2023-03-16T13:11:40;99128.59;;;12.41;44.82
40315;BME280;26021;45.640;11.302;2023-03-16T13:14:08;99166.13;;;12.64;45.63
40315;BME280;26021;45.640;11.302;2023-03-16T13:16:39;99088.06;;;12.36;44.28
40315;BME280;26021;45.640;11.302;2023-03-16T13:19:25;99165.72;;;13.05;44.09
40315;BME280;26021;45.640;11.302;2023-03-16T13:22:17;99161.22;;;13.20;44.89
40315;BME280;26021;45.640;11.302;2023-03-16T13:24:50;99153.88;;;13.14;44.77
40315;BME280;26021;45.640;11.302;2023-03-16T13:27:28;99145.06;;;12.91;46.40
40315;BME280;26021;45.640;11.302;2023-03-16T13:29:59;99140.81;;;12.96;46.21
40315;BME280;26021;45.640;11.302;2023-03-16T13:32:30;98972.81;;;11.99;47.00
40315;BME280;26021;45.640;11.302;2023-03-16T13:34:58;99151.28;;;12.54;48.14
40315;BME280;26021;45.640;11.302;2023-03-16T13:37:27;99149.25;;;12.56;47.98
40315;BME280;26021;45.640;11.302;2023-03-16T13:39:58;99135.34;;;12.90;46.18
40315;BME280;26021;45.640;11.302;2023-03-16T13:42:28;99104.16;;;12.89;46.47
40315;BME280;26021;45.640;11.302;2023-03-16T13:44:56;99107.03;;;12.72;46.54
40315;BME280;26021;45.640;11.302;2023-03-16T13:47:24;99072.59;;;12.76;47.50
40315;BME280;26021;45.640;11.302;2023-03-16T13:49:55;99144.06;;;13.21;46.84
40315;BME280;26021;45.640;11.302;2023-03-16T13:52:33;99150.72;;;13.11;46.71
40315;BME280;26021;45.640;11.302;2023-03-16T13:55:01;99141.28;;;13.15;44.12
40315;BME280;26021;45.640;11.302;2023-03-16T13:57:29;99135.56;;;13.18;44.48
40315;BME280;26021;45.640;11.302;2023-03-16T14:00:23;99138.03;;;12.90;44.19
40315;BME280;26021;45.640;11.302;2023-03-16T14:02:55;99103.78;;;13.21;45.12
40315;BME280;26021;45.640;11.302;2023-03-16T14:07:51;99128.78;;;13.51;45.22
40315;BME280;26021;45.640;11.302;2023-03-16T14:10:17;99086.47;;;12.65;45.96
40315;BME280;26021;45.640;11.302;2023-03-16T14:12:50;99126.34;;;13.12;45.20
40315;BME280;26021;45.640;11.302;2023-03-16T14:15:15;99123.78;;;13.33;43.72
40315;BME280;26021;45.640;11.302;2023-03-16T14:17:42;99110.81;;;13.22;43.26
40315;BME280;26021;45.640;11.302;2023-03-16T14:20:17;99115.91;;;13.32;43.32
40315;BME280;26021;45.640;11.302;2023-03-16T14:22:43;99110.63;;;13.09;43.80
40315;BME280;26021;45.640;11.302;2023-03-16T14:25:18;99124.91;;;13.24;44.71
40315;BME280;26021;45.640;11.302;2023-03-16T14:27:46;99114.16;;;12.95;43.65
40315;BME280;26021;45.640;11.302;2023-03-16T14:30:17;99128.69;;;13.00;44.30
40315;BME280;26021;45.640;11.302;2023-03-16T14:33:05;99126.16;;;13.14;44.34
40315;BME280;26021;45.640;11.302;2023-03-16T14:35:42;99128.88;;;13.43;43.60